arxmliv
arxmliv build tool
 
KWARC group
LaTeXML
About
   
 

Detailed info

Back to Homepage

List of missing_macros

No. Date Filename num_warningnum_errornum_xmargok_xmargnum_xmathok_xmathMissing macros
153801 2013-02-28 18:18:18 /0111/hep-ph.0111160 1940000[\Text, \Line, \ArrowLine, \DashLine].
153802 2013-02-28 18:18:08 /0111/hep-ph.0111151 2620000[\PACS]; 1 missing file[size11.clo.sty].
153803 2013-02-28 18:18:00 /0111/hep-ph.0111125 3810000[{centering}].
153804 2013-02-28 18:18:00 /0111/hep-ph.0111156 2510000[\makefront].
153805 2013-02-28 18:17:29 /0111/hep-ph.0111148 120000[{theacknowledgments}, \layoutstyle].
153806 2013-02-28 18:16:03 /0111/hep-ph.0111107 1920000[\@floatstrue]; 1 missing file[fixes.sty].
153807 2013-02-28 18:16:02 /0111/hep-ph.0111112 1570000[\affil, \citep, \correspondence, \firstpage, \citet, {acknowledgements}, \pubyear]; 1 missing file[icrc.cls].
153808 2013-02-28 18:15:45 /0111/hep-ph.0111113 510000[{centering}].
153809 2013-02-28 18:15:06 /0111/hep-ph.0111104 1950000[\ArrowLine, \Text, \SetWidth, \Photon, \Oval].
153810 2013-02-28 18:14:44 /0111/hep-ph.0111095 1210000[{references}, \titlematter, \acknowledgments]; 1 missing file[menuproc.sty].
153811 2013-02-28 18:14:31 /0111/hep-ph.0111081 510000[{centering}].
153812 2013-02-28 18:14:30 /0111/hep-ph.0111089 1290000[\ArrowArc, \Line, \ArrowArcn, \DashArrowLine, \ArrowLine, \Text, \DashArrowArc, \DashArrowArcn, \DashLine].
153813 2013-02-28 18:13:41 /0111/hep-ph.0111068 1360000[\Vertex, \Line, \Text, \CArc, \LongArrow, \DashLine].
153814 2013-02-28 18:13:06 /0111/hep-ph.0111066 20370000[{references}, \titlematter, \acknowledgments]; 1 missing file[menuproc.sty].
153815 2013-02-28 18:12:31 /0111/hep-ph.0111047 940000[\Text, \Line, \SetWidth, \LongArrow].
153816 2013-02-28 18:11:45 /0111/hep-ph.0111022 2180000[\Vertex, \Text, \ArrowArc, \CArc, \ArrowArcn, \DashArrowLine].
153817 2013-02-28 18:11:32 /0111/hep-ph.0111024 4820000[\includegraphics]; 1 missing file[ws.sty].
153818 2013-02-28 18:10:58 /0111/hep-ph.0111014 330000[\ArrowLine, \Photon, \DashLine].
153819 2013-02-28 18:10:48 /0111/hep-ph.0111003 18120000[\fmffreeze, {fmffile}, {fmfgraph*}, \fmf, \fmfleft, \fmfright, \fmfbottom, \fmfdot].
153820 2013-02-28 18:10:23 /0111/hep-lat.0111058 620000[\ellipse, \filltype].
153821 2013-02-28 18:10:17 /0111/hep-lat.0111059 220000[\psfrag]; 1 missing file[colordvi.sty].
153822 2013-02-28 18:09:51 /0111/hep-lat.0111048 4230000[\mc, \ktp, \fap, \fv, \kv, \muq, \mq, \csw, \ba, \ka, \kt, \chibar, \kvp, \mur, \zm, \mr, \fp, \rmR, \fa, \fpp, \psibar, \zg]; 1 missing file[macros.sty].
153823 2013-02-28 18:09:49 /0111/hep-lat.0111046 1670000[\Vertex, \Line, \ArrowLine, \Text, \Photon, \CArc, \PhotonArc].
153824 2013-02-28 18:08:44 /0111/hep-lat.0111027 620000[\fpsbox, \epsfxsize].
153825 2013-02-28 18:08:17 /0111/hep-lat.0111021 420000[\institute, {opening}].
153826 2013-02-28 18:07:44 /0111/hep-ex.0111088 390000[{Itemize}]; 1 missing file[JAC2000.cls].
153827 2013-02-28 18:07:37 /0111/hep-ex.0111079 790000[\epsfysize, \figurebox, \epsfxsize]; 1 missing file[ws.sty].
153828 2013-02-28 18:07:28 /0111/hep-ex.0111096 440000[\includegraphics, \abstracts]; 1 missing file[ws.sty].
153829 2013-02-28 18:07:21 /0111/hep-ex.0111083 160000[\copyrightyear, \SetInternalRegister, \layoutstyle, \tablehead, \classification]; 1 missing file[{aipcheck.tex}].
153830 2013-02-28 18:07:13 /0111/hep-ex.0111087 2910000[\smaller].
153831 2013-02-28 18:06:56 /0111/hep-ex.0111067 030000[\copyrightyear, \layoutstyle, \classification].
153832 2013-02-28 18:06:55 /0111/hep-ex.0111068 1310000[\abstracts].
153833 2013-02-28 18:06:54 /0111/hep-ex.0111070 2160000[{sideways}, \epsfysize, \figurebox, \epsfxsize]; 1 missing file[ws.sty].
153834 2013-02-28 18:06:40 /0111/hep-ex.0111072 2220000[\PRD, \PLB, \NPB, \Journal, \epsfbox, \abstracts, \PRL, \epsfxsize].
153835 2013-02-28 18:06:31 /0111/hep-ex.0111058 820000[\figurebox]; 1 missing file[ws.sty].
153836 2013-02-28 18:06:07 /0111/hep-ex.0111062 550000[\smaller].
153837 2013-02-28 18:05:55 /0111/hep-ex.0111050 570000[\copyrightyear, \SetInternalRegister, {theacknowledgments}, \layoutstyle, \tablehead, \classification]; 1 missing file[{aipcheck.tex}].
153838 2013-02-28 18:05:53 /0111/hep-ex.0111051 2240000[\copyrightyear, \SetInternalRegister, \layoutstyle, \classification].
153839 2013-02-28 18:05:38 /0111/hep-ex.0111036 820000[\epsfxsize]; 1 missing file[ws.sty].
153840 2013-02-28 18:05:09 /0111/hep-ex.0111040 11120000[\figurebox, \epsfxsize]; 1 missing file[ws.sty].
153841 2013-02-28 18:05:03 /0111/hep-ex.0111039 3620000[\abstracts]; 1 missing file[ws.sty].
153842 2013-02-28 18:04:46 /0111/hep-ex.0111029 35480000[\preprint, \Lep, {mcbibliography}, \ra, \coll, \PRL, \epem, \PL, \etal, \NP, \Wm, \Zo, \EPJ, \Wp, \journalname, \CPC, \rts, \submitted, \GeV, \citet, \PR]; 2 missing files[Lep.sty, l3_title.sty].
153843 2013-02-28 18:04:44 /0111/hep-ex.0111032 3910000[\geometry].
153844 2013-02-28 18:04:15 /0111/hep-ex.0111016 330000[\address, \epsffile, \epsfxsize]; 1 missing file[preprint.cls].
153845 2013-02-28 18:04:13 /0111/hep-ex.0111017 1030000[\smaller].
153846 2013-02-28 18:04:02 /0111/hep-ex.0111022 1310000[\smaller].
153847 2013-02-28 18:04:01 /0111/hep-ex.0111019 330000[\abstracts, \epsfig]; 1 missing file[ws.sty].
153848 2013-02-28 18:03:53 /0111/hep-ex.0111020 0200000[\abstracts, \epsfig]; 1 missing file[ws.sty].
153849 2013-02-28 18:03:44 /0111/hep-ex.0111023 2670000[\EPJ, \PLB, \Journal, \abstracts, \psfig, \NPB]; 1 missing file[ws.sty].
153850 2013-02-28 18:03:34 /0111/hep-ex.0111012 8560000[\preprint, \Lep, {mcbibliography}, \ra, \coll, \MeV, \as, \epem, \PL, \NP, \etal, \EPJ, \ifmath, \muchless, \journalname, \CPC, \ZfP, \qbar, \citet, \submitted, \GeV, \PR]; 2 missing files[Lep.sty, l3_title.sty].
153851 2013-02-28 18:02:49 /0111/hep-ex.0111003 230000[\smaller].
153852 2013-02-28 18:02:42 /0111/hep-ex.0111004 010000[\collaboration].
153853 2013-02-28 18:02:39 /0111/gr-qc.0111086 20550000[\NAME, \BY, \atque, \instlist, \from].
153854 2013-02-28 17:59:56 /0111/gr-qc.0111089 030000[\pssilent, \psfig]; 1 missing file[psfig].
153855 2013-02-28 17:57:02 /0111/gr-qc.0111049 010000[\bezier].
153856 2013-02-28 17:55:55 /0111/gr-qc.0111054 5020000[\overset]; 1 missing file[u.fontmap].
153857 2013-02-28 17:54:47 /0111/gr-qc.0111057 440000[\includegraphics, \abstracts, \resizebox]; 1 missing file[ws.sty].
153858 2013-02-28 17:54:37 /0111/gr-qc.0111040 3820000[\th, \dh].
153859 2013-02-28 17:49:09 /0111/cs.0111056 77220000[{received}, \n@space, \terms, {acks}, {bottomstuff}, \keywords, {definition}, {example}, \category, {proof}, \newdef]; 1 missing file[acmtrans2m.cls].
153860 2013-02-28 17:49:04 /0111/cs.0111064 1050000[\emcite]; 2 missing files[mlapa.sty, icml2001.sty].
153861 2013-02-28 17:49:02 /0111/cs.0111065 2590000[{singlespace}, \issue, \runningauthor, \namecite, \runningtitle, \starttwocolumn]; 1 missing file[cl.sty].
153862 2013-02-28 17:48:30 /0111/cs.0111062 54240000[{definition}, {lemma}, {theorem}, {corollary}, {remunerate}, {AMS}, \endproof, {proof}, \thetheorem].
153863 2013-02-28 17:48:24 /0111/cs.0111054 7430000[{proof}]; 1 missing file[IEEEtran.cls].
153864 2013-02-28 17:48:16 /0111/gr-qc.0111008 1570000[\theappendix].
153865 2013-02-28 17:47:37 /0111/cs.0111060 750000[\reportnumber, \reportaddnote, \makecover]; 2 missing files[techrep.sty, mlapa.sty].
153866 2013-02-28 17:47:34 /0111/cs.0111038 69360000[\Ext, {algorithm}, \For, \If, \lForEach, \lnl, \DAC, \pdfcompresslevel, \Procedure, \eIf, \ForEach, \ExtAC, \While, \SetKwFor, \ProjAC, \BlankLine, \Proj, \SetKwFunction, \GAC]; 1 missing file[garamond.sty].
153867 2013-02-28 17:47:12 /0111/cs.0111043 17490000[{listing}].
153868 2013-02-28 17:47:03 /0111/cs.0111049 4210000[{boxedverbatim}, \drawline].
153869 2013-02-28 17:46:40 /0111/cs.0111009 360000[\ref, \section, \\, \cite, \NULL, \quo].
153870 2013-02-28 17:46:38 /0111/cs.0111011 060000[\section, \SKY, \cite, \label, \datalog, \datalogc].
153871 2013-02-28 17:46:36 /0111/cs.0111023 3160000[{Itemize}]; 1 missing file[JAC2000.cls].
153872 2013-02-28 17:46:35 /0111/cs.0111035 330000[{Description}]; 1 missing file[JAC2000.cls].
153873 2013-02-28 17:45:48 /0111/cond-mat.0111581 1830000[\@affiliation].
153874 2013-02-28 17:45:36 /0111/cond-mat.0111561 440000[\subject, \comment, \institute, \keywords]; 1 missing file[vk1art.cls].
153875 2013-02-28 17:44:05 /0111/cond-mat.0111522 450000[\@affiliation].
153876 2013-02-28 17:43:47 /0111/cond-mat.0111526 570000[\twoimages, \@affiliation, \onefigure, \etal].
153877 2013-02-28 17:43:00 /0111/cond-mat.0111521 1350000[\kword, \abst, \inst, \recdate, \citen].
153878 2013-02-28 17:42:35 /0111/cond-mat.0111509 030000[\institute, \runningtitle, {opening}].
153879 2013-02-28 17:41:34 /0111/cond-mat.0111488 030000[\extrasenglish, \dateenglish, \captionsenglish].
153880 2013-02-28 17:41:27 /0111/cond-mat.0111470 250000[\@affiliation, \onefigure, \etal].
153881 2013-02-28 17:41:13 /0111/cond-mat.0111457 080000[\noextrasfrench, \captionsfrench, \noextrasenglish, \dateenglish, \extrasenglish, \datefrench, \extrasfrench, \captionsenglish].
153882 2013-02-28 17:40:37 /0111/cond-mat.0111467 410000[\theappendix].
153883 2013-02-28 17:40:28 /0111/cond-mat.0111453 1310000[\theappendix].
153884 2013-02-28 17:40:25 /0111/cond-mat.0111468 010000[\epsfig].
153885 2013-02-28 17:39:14 /0111/cond-mat.0111441 030000[\@affiliation, \onefigure].
153886 2013-02-28 17:39:10 /0111/cond-mat.0111443 710000[\psfrag].
153887 2013-02-28 17:37:35 /0111/cond-mat.0111415 190000[\PRB, \Journal, \epsfbox, \abstracts, \PRL, \RPP, \ibid, \epsfxsize]; 1 missing file[ws.sty].
153888 2013-02-28 17:35:36 /0111/cond-mat.0111414 8140000[\And].
153889 2013-02-28 17:34:36 /0111/cond-mat.0111387 1610000[\psfrag].
153890 2013-02-28 17:33:35 /0111/cond-mat.0111372 4120000[\TCItag, \dsum].
153891 2013-02-28 17:31:44 /0111/cond-mat.0111349 1310000[\rotate].
153892 2013-02-28 17:31:07 /0111/cond-mat.0111354 240000[\kword, \abst, \inst, \recdate].
153893 2013-02-28 17:30:55 /0111/cond-mat.0111335 090000[\email, \twoimages, \@affiliation, \onefigure, \etal].
153894 2013-02-28 17:30:00 /0111/cond-mat.0111325 270000[\twofigures, \email, \@affiliation, \etal].
153895 2013-02-28 17:29:58 /0111/cond-mat.0111314 1010000[\toctitle].
153896 2013-02-28 17:26:55 /0111/cond-mat.0111296 2310000[\psfrag].
153897 2013-02-28 17:22:58 /0111/cond-mat.0111254 1750000[\meter, \psfrag, \mathinner, \psfragscanoff, \psfragscanon].
153898 2013-02-28 17:22:33 /0111/cond-mat.0111252 520000[\psfig]; 1 missing file[psfig].
153899 2013-02-28 17:21:38 /0111/cond-mat.0111246 010000[\+].
153900 2013-02-28 17:21:20 /0111/cond-mat.0111235 4130000[\PACSes, \BY, \TITLE, \IN, \@affiliation, \atque, \acknowledgments, \PACSit].
153901 2013-02-28 17:20:55 /0111/cond-mat.0111220 0120000[\PRep, \epsfig, \Journal, \PRA, \abstracts, \psfrag, \PRL, \AP, \Sci, \RMP, \etal]; 1 missing file[ws.sty].
153902 2013-02-28 17:20:41 /0111/cond-mat.0111219 18200000[\theappendix, \epsfile, \mib]; 2 missing files[subeqna.sty, jpsjbs.sty].
153903 2013-02-28 17:20:10 /0111/cond-mat.0111199 130000[\citet]; 2 missing files[subeqna.sty, jpsjbs.sty].
153904 2013-02-28 17:19:33 /0111/cond-mat.0111158 6770000[\emline, \catchline, \ttbl, \epsffile, \pub, \epsfxsize]; 1 missing file[ws.sty].
153905 2013-02-28 17:19:12 /0111/cond-mat.0111175 510000[\mathinner].
153906 2013-02-28 17:18:38 /0111/cond-mat.0111180 010000[\dec].
153907 2013-02-28 17:18:26 /0111/cond-mat.0111170 2040000[\psfrag].
153908 2013-02-28 17:18:11 /0111/cond-mat.0111167 720000[\Qlb, \FRAME].
153909 2013-02-28 17:17:53 /0111/cond-mat.0111155 1730000[\address, \runninghead, \onlinecite]; 1 missing file[jltp-num.cls].
153910 2013-02-28 17:17:39 /0111/cond-mat.0111161 2610000[\address].
153911 2013-02-28 17:17:29 /0111/cond-mat.0111141 010000[\citen].
153912 2013-02-28 17:16:37 /0111/cond-mat.0111135 030000[\institute, \runningtitle, {opening}].
153913 2013-02-28 17:15:53 /0111/cond-mat.0111114 120000[\marginsize]; 1 missing file[graphpap.sty].
153914 2013-02-28 17:15:27 /0111/cond-mat.0111097 7160000[\epsfbox, \mib, \epsfysize, \epsfxsize]; 2 missing files[subeqna.sty, jpsjbs.sty].
153915 2013-02-28 17:15:17 /0111/cond-mat.0111117 430000[\Qlb, \Qcb, \FRAME].
153916 2013-02-28 17:14:58 /0111/cond-mat.0111104 1510000[\address].
153917 2013-02-28 17:14:39 /0111/cond-mat.0111088 2040000[\epsfbox, \mib]; 2 missing files[subeqna.sty, jpsjbs.sty].
153918 2013-02-28 17:13:23 /0111/cond-mat.0111075 1540000[\epsfile, \citet]; 2 missing files[subeqna.sty, jpsjbs.sty].
153919 2013-02-28 17:12:35 /0111/cond-mat.0111061 310000[\address].
153920 2013-02-28 17:12:29 /0111/cond-mat.0111052 110000[\toctitle].
153921 2013-02-28 17:08:46 /0111/cond-mat.0111021 2340000[\epsffile, \epsfysize]; 2 missing files[subeqna.sty, jpsjbs.sty].
153922 2013-02-28 17:06:55 /0111/astro-ph.0111606 230000[\epsffile, \epsfxsize]; 1 missing file[onecolfloat.sty].
153923 2013-02-28 17:06:13 /0111/cond-mat.0111003 120000[\@affiliation].
153924 2013-02-28 17:06:09 /0111/cond-mat.0111004 8110000[\un, \@affiliation, \onefigure, \etal].
153925 2013-02-28 17:05:58 /0111/astro-ph.0111600 460000[{keywords}, \affiliation, \jvol, \ARinfo, \jname, \jyear]; 1 missing file[ar2e.cls].
153926 2013-02-28 17:05:54 /0111/astro-ph.0111592 2370000[\aeta, \apj, \aj, {iapbib}, \heading, \address, \apjs, \mnras, \acknowledgements]; 1 missing file[conf_iap.sty].
153927 2013-02-28 17:05:02 /0111/astro-ph.0111583 090000[\citeauthoryear, \surname, \institute, {opening}, {article}, \keywords, \newdisplay, \runningauthor, \acknowledgements].
153928 2013-02-28 17:04:29 /0111/astro-ph.0111588 060000[\citeauthoryear, \surname, \runningauthor, \institute, {opening}, {article}].
153929 2013-02-28 17:04:22 /0111/astro-ph.0111573 010000[\toctitle].
153930 2013-02-28 17:04:18 /0111/astro-ph.0111590 090000[\citeauthoryear, \surname, \institute, {opening}, {article}, \keywords, \newdisplay, \runningauthor, \acknowledgements].
153931 2013-02-28 17:04:00 /0111/astro-ph.0111567 3270000[\rhead, \headnote, \inst, \correspondence, \institute, \lhead, \acknowledgements].
153932 2013-02-28 17:04:00 /0111/astro-ph.0111574 0120000[\affil, \plotone, \reference, {references}, \acknowledgements, \plottwo]; 1 missing file[newpasp.sty].
153933 2013-02-28 17:03:53 /0111/astro-ph.0111577 280000[\affil, \apjs, \apj, \aj, \reference, {references}, \tableline]; 1 missing file[newpasp.sty].
153934 2013-02-28 17:03:53 /0111/astro-ph.0111579 4230000[\tablerefs, \nl, \accepted, \tablecolumns, {deluxetable}, \tablefontsize, \tablecomments, \startdata, \enddata, \received, {acknowledgements}, \tablenotetext, \tablehead, \tablewidth, \altaffilmark, \keywords, \figcaption, Align, \tablecaption, \plotone,
153935 2013-02-28 17:03:46 /0111/astro-ph.0111578 0120000[\arcmin, \affil, \apj, \tablenotetext, \tableline, \aap, \altaffilmark, \reference, \altaffiltext, \tablenotemark, {references}]; 1 missing file[newpasp.sty].
153936 2013-02-28 17:03:44 /0111/astro-ph.0111571 7140000[\theappendix].
153937 2013-02-28 17:03:24 /0111/astro-ph.0111580 080000[\affil, \apj, \reference, {references}, \acknowledgements, \farcs, \aap]; 1 missing file[newpasp.sty].
153938 2013-02-28 17:03:18 /0111/astro-ph.0111562 060000[\affil, \reference, {references}, \ga, \acknowledgments]; 1 missing file[newpasp.sty].
153939 2013-02-28 17:02:52 /0111/astro-ph.0111552 480000[\affil, \citep, \correspondence, \firstpage, \citet, \pubyear, {acknowledgements}, \balance]; 1 missing file[icrc.cls].
153940 2013-02-28 17:02:37 /0111/astro-ph.0111557 030000[\@affiliation].
153941 2013-02-28 17:02:23 /0111/astro-ph.0111559 010000[\theappendix].
153942 2013-02-28 17:02:20 /0111/astro-ph.0111560 1170000[\psfig]; 1 missing file[psfig].
153943 2013-02-28 17:01:57 /0111/astro-ph.0111561 080000[\affil, \astap, \apj, \reference, {references}, \apjl, \acknowledgements]; 1 missing file[newpaspman.sty].
153944 2013-02-28 17:00:53 /0111/astro-ph.0111535 130000[\extrasenglish, \dateenglish, \captionsenglish].
153945 2013-02-28 17:00:39 /0111/astro-ph.0111540 070000[\affil, \reference, {references}, \tableline]; 1 missing file[newpasp.sty].
153946 2013-02-28 17:00:33 /0111/astro-ph.0111528 4130000[\psfig]; 1 missing file[psfig.tex].
153947 2013-02-28 17:00:24 /0111/astro-ph.0111525 1130000[\affil, \apj, \aj, \ga, \aap, \la, \apjs, \mnras, \pasp, \reference, {references}]; 1 missing file[dunk2001_asp.sty].
153948 2013-02-28 17:00:14 /0111/astro-ph.0111520 1560000[Align, \+, \columns].
153949 2013-02-28 16:59:46 /0111/astro-ph.0111511 610000[\subsubsubsection].
153950 2013-02-28 16:59:38 /0111/astro-ph.0111515 090000[\affil, {answer}, \reference, \plotone, {question}, {references}, \plotfiddle, \aap]; 1 missing file[newpasp.sty].
153951 2013-02-28 16:59:23 /0111/astro-ph.0111518 0140000[\arcmin, \affil, \apj, \aj, \aaps, \ga, \aap, \sun, \mnras, \plotone, \reference, {references}, \farcs]; 1 missing file[newpasp.sty].
153952 2013-02-28 16:59:22 /0111/astro-ph.0111519 090000[\affil, \apj, \aj, \aap, \acknowledgments, \apjs, \plotone, {references}]; 1 missing file[mypasp.sty].
153953 2013-02-28 16:59:20 /0111/astro-ph.0111521 130000[\toprule, \bottomrule]; 1 missing file[pictexwd.sty].
153954 2013-02-28 16:58:49 /0111/astro-ph.0111507 140000[\affil, \reference, {references}]; 1 missing file[newpasp.sty].
153955 2013-02-28 16:58:43 /0111/astro-ph.0111508 150000[\copyrightyear, \SetInternalRegister, \layoutstyle, \classification]; 1 missing file[{aipcheck.tex}].
153956 2013-02-28 16:58:30 /0111/astro-ph.0111492 050000[\runningauthor, \institute, \acknowledgements, {opening}, {article}].
153957 2013-02-28 16:58:21 /0111/astro-ph.0111497 010000[\pagenumbering].
153958 2013-02-28 16:57:28 /0111/astro-ph.0111484 150000[\copyrightyear, \SetInternalRegister, {theacknowledgments}, \layoutstyle, \classification].
153959 2013-02-28 16:57:18 /0111/astro-ph.0111485 650000[\affil, \reference, {references}]; 1 missing file[IAU207_pasp.sty].
153960 2013-02-28 16:57:00 /0111/astro-ph.0111491 060000[\affil, \mnras, \apj, \reference, {references}]; 1 missing file[newpasp.sty].
153961 2013-02-28 16:56:53 /0111/astro-ph.0111477 010000[\theappendix].
153962 2013-02-28 16:56:46 /0111/astro-ph.0111478 0170000[\affil, \htmladdnormallinkfoot, \aindex, \paperID, \paindex, \email, \reference, {references}, \adassx, \altaffilmark, \keywords, \adassiv, \altaffiltext, \adassix, \acknowledgements, \contact]; 1 missing file[adassconf.sty].
153963 2013-02-28 16:56:25 /0111/astro-ph.0111480 430000[\includegraphics, \abstracts]; 1 missing file[ws.sty].
153964 2013-02-28 16:56:17 /0111/astro-ph.0111464 020000[\address]; 1 missing file[jhuwkshp.sty].
153965 2013-02-28 16:55:49 /0111/astro-ph.0111453 050000[\affil, \reference, {references}, \aap]; 1 missing file[newpasp.sty].
153966 2013-02-28 16:55:33 /0111/astro-ph.0111441 2440000[\affil, \reference, {references}, \farcs, \keywords]; 1 missing file[newpasp.sty].
153967 2013-02-28 16:55:11 /0111/astro-ph.0111446 2130000[\affil, \apj, \keywords, \altaffilmark, \sun, \epsfsize, \mnras, \astap, \reference, \psfrag, \altaffiltext, {references}]; 1 missing file[iau185.sty].
153968 2013-02-28 16:55:07 /0111/astro-ph.0111447 020000[{turn}].
153969 2013-02-28 16:55:01 /0111/astro-ph.0111431 470000[\affil, \reference, \plotone, {references}, \plotfiddle]; 1 missing file[newpasp.sty].
153970 2013-02-28 16:54:49 /0111/astro-ph.0111437 1180000[\copyrightyear, \SetInternalRegister, {theacknowledgments}, \layoutstyle, \tablehead, \classification].
153971 2013-02-28 16:54:48 /0111/astro-ph.0111439 0560000[\affil, \reference, {references}, \farcs, \keywords]; 1 missing file[newpasp.sty].
153972 2013-02-28 16:54:42 /0111/astro-ph.0111420 0100000[\affil, \apj, \aj, \aap, \mnras, \apjs, \plotone, {references}, \araa]; 1 missing file[newpasp.sty].
153973 2013-02-28 16:54:34 /0111/astro-ph.0111392 8920000[\@mathmargin]; 1 missing file[mathbbol.sty].
153974 2013-02-28 16:54:33 /0111/astro-ph.0111412 18210000[\psfigurepath].
153975 2013-02-28 16:54:10 /0111/astro-ph.0111428 2150000[\affil, \reference, {references}, \plotfiddle]; 1 missing file[newpasp.sty].
153976 2013-02-28 16:54:08 /0111/astro-ph.0111430 060000[\affil, \mnras, \reference, {references}, \acknowledgments]; 1 missing file[newpasp.sty].
153977 2013-02-28 16:53:40 /0111/astro-ph.0111419 020000[\address]; 1 missing file[jhuwkshp.sty].
153978 2013-02-28 16:53:35 /0111/astro-ph.0111401 1710000[\toctitle].
153979 2013-02-28 16:53:23 /0111/astro-ph.0111404 050000[\affil, \apj, \reference, {references}]; 1 missing file[newpasp.sty].
153980 2013-02-28 16:53:21 /0111/astro-ph.0111405 040000[\affil, \reference, {references}]; 1 missing file[newpasp.sty].
153981 2013-02-28 16:52:59 /0111/astro-ph.0111391 090000[\arcmin, \affil, \apj, \reference, {references}, \tableline, \ga, \la]; 1 missing file[newpasp.sty].
153982 2013-02-28 16:52:39 /0111/astro-ph.0111396 0220000[\address, {iapbib}, \acknowledgements, \heading]; 1 missing file[conf_iap.sty].
153983 2013-02-28 16:52:25 /0111/astro-ph.0111381 360000[\copyrightyear, \SetInternalRegister, {theacknowledgments}, \layoutstyle, \classification]; 1 missing file[{aipcheck.tex}].
153984 2013-02-28 16:52:09 /0111/astro-ph.0111389 0100000[\arcmin, \affil, \mnras, \apj, \reference, {references}, \tableline, \apjl, \la]; 1 missing file[newpasp.sty].
153985 2013-02-28 16:52:06 /0111/astro-ph.0111376 6280000[\maketitle, \affiliation, \volume, \loadboldmathnames, \begintopmatter, \NewMathAlphabet, \begintable, \shorttitle, \abstract, \caption, \pageoffset, \NewTextAlphabet, \author, \endrefs, \pubyear, \beginrefs, \section, \subsection, \endtable, \shortautho
153986 2013-02-28 16:52:02 /0111/astro-ph.0111377 340000[\arcmin, \sun, \institute, \keywords]; 1 missing file[ESASPStyle.cls].
153987 2013-02-28 16:52:00 /0111/astro-ph.0111375 070000[\affil, \reference, {references}, \acknowledgements, \ga, \la]; 1 missing file[newpasp.sty].
153988 2013-02-28 16:51:42 /0111/astro-ph.0111362 060000[Align, \shortciteN, \citeN, \shortciteNP, \citeNP]; 1 missing file[astrobib.sty].
153989 2013-02-28 16:51:36 /0111/astro-ph.0111363 040000[\affil, \reference, {references}]; 1 missing file[newpasp.sty].
153990 2013-02-28 16:51:12 /0111/astro-ph.0111351 1200000[\affil, \tablecols, \ga, \tabnotemark, \extrasenglish, \shorttitle, \resumen, \indexauthor, \shortauthor, \tabnotetext, \dateenglish, \la, \listofauthors, \ion, \acknowledgements, \fulladdresses, \farcs, \captionsenglish].
153991 2013-02-28 16:51:01 /0111/astro-ph.0111354 0140000[\affil, \reference, \plotone, {references}, \plottwo]; 1 missing file[newpasp.sty].
153992 2013-02-28 16:50:56 /0111/astro-ph.0111356 0110000[\toctitle, \apj, \citeNP, \apjl, \nat, \aap, \mnras, \pasp, \araa]; 2 missing files[journals.sty, astrobib.sty].
153993 2013-02-28 16:50:07 /0111/astro-ph.0111349 040000[\surname, \institute, {opening}, {article}].
153994 2013-02-28 16:50:00 /0111/astro-ph.0111331 070000[\affil, \mnras, \reference, \aaps, {references}, \aap]; 1 missing file[newpasp.sty].
153995 2013-02-28 16:49:54 /0111/astro-ph.0111335 080000[\affil, \astap, \apj, \reference, \object, {references}, \keywords]; 1 missing file[iau185.sty].
153996 2013-02-28 16:49:40 /0111/astro-ph.0111321 020000[\psfig]; 1 missing file[psfig].
153997 2013-02-28 16:49:01 /0111/astro-ph.0111318 1950000[\citeauthoryear, \subfigure, \psfig, \citeN, \citeNP].
153998 2013-02-28 16:48:58 /0111/astro-ph.0111314 3100000[\affil, \mnras, \apj, \aj, \reference, {references}, \apjl, \plotfiddle, \plottwo]; 1 missing file[newpasp.sty].
153999 2013-02-28 16:48:48 /0111/astro-ph.0111315 0100000[\address, {iapbib}, \heading]; 1 missing file[conf_iap.sty].
154000 2013-02-28 16:48:39 /0111/astro-ph.0111319 380000[\mnras, \apj, \altaffiltext, \apjl, \ga, \la, \altaffilmark]; 1 missing file[newpasp.sty].
<<< >>>

[0] [200] [400] [600] [800] [1000] [1200] [1400] [1600] [1800] [2000] [2200] [2400] [2600] [2800] [3000] [3200] [3400] [3600] [3800] [4000] [4200] [4400] [4600] [4800] [5000] [5200] [5400] [5600] [5800] [6000] [6200] [6400] [6600] [6800] [7000] [7200] [7400] [7600] [7800] [8000] [8200] [8400] [8600] [8800] [9000] [9200] [9400] [9600] [9800] [10000] [10200] [10400] [10600] [10800] [11000] [11200] [11400] [11600] [11800] [12000] [12200] [12400] [12600] [12800] [13000] [13200] [13400] [13600] [13800] [14000] [14200] [14400] [14600] [14800] [15000] [15200] [15400] [15600] [15800] [16000] [16200] [16400] [16600] [16800] [17000] [17200] [17400] [17600] [17800] [18000] [18200] [18400] [18600] [18800] [19000] [19200] [19400] [19600] [19800] [20000] [20200] [20400] [20600] [20800] [21000] [21200] [21400] [21600] [21800] [22000] [22200] [22400] [22600] [22800] [23000] [23200] [23400] [23600] [23800] [24000] [24200] [24400] [24600] [24800] [25000] [25200] [25400] [25600] [25800] [26000] [26200] [26400] [26600] [26800] [27000] [27200] [27400] [27600] [27800] [28000] [28200] [28400] [28600] [28800] [29000] [29200] [29400] [29600] [29800] [30000] [30200] [30400] [30600] [30800] [31000] [31200] [31400] [31600] [31800] [32000] [32200] [32400] [32600] [32800] [33000] [33200] [33400] [33600] [33800] [34000] [34200] [34400] [34600] [34800] [35000] [35200] [35400] [35600] [35800] [36000] [36200] [36400] [36600] [36800] [37000] [37200] [37400] [37600] [37800] [38000] [38200] [38400] [38600] [38800] [39000] [39200] [39400] [39600] [39800] [40000] [40200] [40400] [40600] [40800] [41000] [41200] [41400] [41600] [41800] [42000] [42200] [42400] [42600] [42800] [43000] [43200] [43400] [43600] [43800] [44000] [44200] [44400] [44600] [44800] [45000] [45200] [45400] [45600] [45800] [46000] [46200] [46400] [46600] [46800] [47000] [47200] [47400] [47600] [47800] [48000] [48200] [48400] [48600] [48800] [49000] [49200] [49400] [49600] [49800] [50000] [50200] [50400] [50600] [50800] [51000] [51200] [51400] [51600] [51800] [52000] [52200] [52400] [52600] [52800] [53000] [53200] [53400] [53600] [53800] [54000] [54200] [54400] [54600] [54800] [55000] [55200] [55400] [55600] [55800] [56000] [56200] [56400] [56600] [56800] [57000] [57200] [57400] [57600] [57800] [58000] [58200] [58400] [58600] [58800] [59000] [59200] [59400] [59600] [59800] [60000] [60200] [60400] [60600] [60800] [61000] [61200] [61400] [61600] [61800] [62000] [62200] [62400] [62600] [62800] [63000] [63200] [63400] [63600] [63800] [64000] [64200] [64400] [64600] [64800] [65000] [65200] [65400] [65600] [65800] [66000] [66200] [66400] [66600] [66800] [67000] [67200] [67400] [67600] [67800] [68000] [68200] [68400] [68600] [68800] [69000] [69200] [69400] [69600] [69800] [70000] [70200] [70400] [70600] [70800] [71000] [71200] [71400] [71600] [71800] [72000] [72200] [72400] [72600] [72800] [73000] [73200] [73400] [73600] [73800] [74000] [74200] [74400] [74600] [74800] [75000] [75200] [75400] [75600] [75800] [76000] [76200] [76400] [76600] [76800] [77000] [77200] [77400] [77600] [77800] [78000] [78200] [78400] [78600] [78800] [79000] [79200] [79400] [79600] [79800] [80000] [80200] [80400] [80600] [80800] [81000] [81200] [81400] [81600] [81800] [82000] [82200] [82400] [82600] [82800] [83000] [83200] [83400] [83600] [83800] [84000] [84200] [84400] [84600] [84800] [85000] [85200] [85400] [85600] [85800] [86000] [86200] [86400] [86600] [86800] [87000] [87200] [87400] [87600] [87800] [88000] [88200] [88400] [88600] [88800] [89000] [89200] [89400] [89600] [89800] [90000] [90200] [90400] [90600] [90800] [91000] [91200] [91400] [91600] [91800] [92000] [92200] [92400] [92600] [92800] [93000] [93200] [93400] [93600] [93800] [94000] [94200] [94400] [94600] [94800] [95000] [95200] [95400] [95600] [95800] [96000] [96200] [96400] [96600] [96800] [97000] [97200] [97400] [97600] [97800] [98000] [98200] [98400] [98600] [98800] [99000] [99200] [99400] [99600] [99800] [100000] [100200] [100400] [100600] [100800] [101000] [101200] [101400] [101600] [101800] [102000] [102200] [102400] [102600] [102800] [103000] [103200] [103400] [103600] [103800] [104000] [104200] [104400] [104600] [104800] [105000] [105200] [105400] [105600] [105800] [106000] [106200] [106400] [106600] [106800] [107000] [107200] [107400] [107600] [107800] [108000] [108200] [108400] [108600] [108800] [109000] [109200] [109400] [109600] [109800] [110000] [110200] [110400] [110600] [110800] [111000] [111200] [111400] [111600] [111800] [112000] [112200] [112400] [112600] [112800] [113000] [113200] [113400] [113600] [113800] [114000] [114200] [114400] [114600] [114800] [115000] [115200] [115400] [115600] [115800] [116000] [116200] [116400] [116600] [116800] [117000] [117200] [117400] [117600] [117800] [118000] [118200] [118400] [118600] [118800] [119000] [119200] [119400] [119600] [119800] [120000] [120200] [120400] [120600] [120800] [121000] [121200] [121400] [121600] [121800] [122000] [122200] [122400] [122600] [122800] [123000] [123200] [123400] [123600] [123800] [124000] [124200] [124400] [124600] [124800] [125000] [125200] [125400] [125600] [125800] [126000] [126200] [126400] [126600] [126800] [127000] [127200] [127400] [127600] [127800] [128000] [128200] [128400] [128600] [128800] [129000] [129200] [129400] [129600] [129800] [130000] [130200] [130400] [130600] [130800] [131000] [131200] [131400] [131600] [131800] [132000] [132200] [132400] [132600] [132800] [133000] [133200] [133400] [133600] [133800] [134000] [134200] [134400] [134600] [134800] [135000] [135200] [135400] [135600] [135800] [136000] [136200] [136400] [136600] [136800] [137000] [137200] [137400] [137600] [137800] [138000] [138200] [138400] [138600] [138800] [139000] [139200] [139400] [139600] [139800] [140000] [140200] [140400] [140600] [140800] [141000] [141200] [141400] [141600] [141800] [142000] [142200] [142400] [142600] [142800] [143000] [143200] [143400] [143600] [143800] [144000] [144200] [144400] [144600] [144800] [145000] [145200] [145400] [145600] [145800] [146000] [146200] [146400] [146600] [146800] [147000] [147200] [147400] [147600] [147800] [148000] [148200] [148400] [148600] [148800] [149000] [149200] [149400] [149600] [149800] [150000] [150200] [150400] [150600] [150800] [151000] [151200] [151400] [151600] [151800] [152000] [152200] [152400] [152600] [152800] [153000] [153200] [153400] [153600] [153800] [154000] [154200] [154400] [154600] [154800] [155000] [155200] [155400] [155600] [155800] [156000] [156200] [156400] [156600] [156800] [157000] [157200] [157400] [157600] [157800] [158000] [158200] [158400] [158600] [158800] [159000] [159200] [159400] [159600] [159800] [160000] [160200] [160400] [160600] [160800] [161000] [161200] [161400] [161600] [161800] [162000] [162200] [162400] [162600] [162800] [163000] [163200] [163400] [163600] [163800] [164000] [164200] [164400] [164600]
 
  The service has been written by
Heinrich Stamerjohanns